createdAt,value
2023-05-02T00:00:03.177Z,8.89
2023-05-02T00:01:03.352Z,8.87
2023-05-02T00:02:02.715Z,8.86
2023-05-02T00:03:02.622Z,8.86
2023-05-02T00:04:02.469Z,8.87
2023-05-02T00:05:02.124Z,8.90
2023-05-02T00:06:02.113Z,8.91
2023-05-02T00:07:01.990Z,8.92
2023-05-02T00:08:02.012Z,8.94
2023-05-02T00:09:01.963Z,8.92
2023-05-02T00:10:02.151Z,8.94
2023-05-02T00:11:01.908Z,8.96
2023-05-02T00:12:01.885Z,8.98
2023-05-02T00:13:01.814Z,8.95
2023-05-02T00:14:01.884Z,8.90
2023-05-02T00:15:01.920Z,8.92
2023-05-02T00:16:02.082Z,8.94
2023-05-02T00:17:02.417Z,8.97
2023-05-02T00:18:02.333Z,8.94
2023-05-02T00:19:02.397Z,8.94
2023-05-02T00:20:02.328Z,8.96
2023-05-02T00:21:02.257Z,8.97
2023-05-02T00:22:02.178Z,8.98
2023-05-02T00:23:02.151Z,8.98
2023-05-02T00:24:02.553Z,8.97
2023-05-02T00:25:02.499Z,8.98
2023-05-02T00:26:02.566Z,8.99
2023-05-02T00:27:02.607Z,9.02
2023-05-02T00:28:02.564Z,9.07
2023-05-02T00:29:02.788Z,9.09
2023-05-02T00:30:03.000Z,9.08
2023-05-02T00:31:02.949Z,9.08
2023-05-02T00:32:03.021Z,9.10
2023-05-02T00:33:03.081Z,9.12
2023-05-02T00:34:03.002Z,9.13
2023-05-02T00:35:02.985Z,9.15
2023-05-02T00:36:02.923Z,9.17
2023-05-02T00:37:02.382Z,9.20
2023-05-02T00:38:02.108Z,9.22
2023-05-02T00:39:02.366Z,9.25
2023-05-02T00:40:02.386Z,9.29
2023-05-02T00:41:02.308Z,9.33
2023-05-02T00:42:02.012Z,9.36
2023-05-02T00:43:01.899Z,9.38
2023-05-02T00:44:01.893Z,9.36
2023-05-02T00:45:01.886Z,9.37
2023-05-02T00:46:01.946Z,9.35
2023-05-02T00:47:02.449Z,9.35
2023-05-02T00:48:02.448Z,9.36
2023-05-02T00:49:02.732Z,9.35
2023-05-02T00:50:03.027Z,9.36
2023-05-02T00:51:02.802Z,9.40
2023-05-02T00:52:02.658Z,9.43
2023-05-02T00:53:02.731Z,9.49
2023-05-02T00:54:02.695Z,9.52
2023-05-02T00:55:02.778Z,9.56
2023-05-02T00:56:02.798Z,9.59
2023-05-02T00:57:02.817Z,9.58
2023-05-02T00:58:02.778Z,9.59
2023-05-02T00:59:03.178Z,9.58
2023-05-02T01:00:02.861Z,9.60
2023-05-02T01:01:02.968Z,9.61
2023-05-02T01:02:02.006Z,9.64
2023-05-02T01:03:02.181Z,9.65
2023-05-02T01:04:02.507Z,9.67
2023-05-02T01:05:02.189Z,9.69
2023-05-02T01:06:02.297Z,9.70
2023-05-02T01:07:01.938Z,9.69
2023-05-02T01:08:02.063Z,9.70
2023-05-02T01:09:02.014Z,9.71
2023-05-02T01:10:01.940Z,9.72
2023-05-02T01:11:02.077Z,9.71
2023-05-02T01:12:02.039Z,9.71
2023-05-02T01:13:02.009Z,9.70
2023-05-02T01:14:01.988Z,9.70
2023-05-02T01:15:01.958Z,9.67
2023-05-02T01:16:01.916Z,9.67
2023-05-02T01:17:02.777Z,9.67
2023-05-02T01:18:02.404Z,9.68
2023-05-02T01:19:02.439Z,9.69
2023-05-02T01:20:02.661Z,9.71
2023-05-02T01:21:02.317Z,9.73
2023-05-02T01:22:02.046Z,9.74
2023-05-02T01:23:02.214Z,9.75
2023-05-02T01:24:02.228Z,9.76
2023-05-02T01:25:02.228Z,9.78
2023-05-02T01:26:02.225Z,9.79
2023-05-02T01:27:02.237Z,9.81
2023-05-02T01:28:02.243Z,9.82
2023-05-02T01:29:02.180Z,9.82
2023-05-02T01:30:02.349Z,9.83
2023-05-02T01:31:02.274Z,9.84
2023-05-02T01:32:02.292Z,9.85
2023-05-02T01:33:02.479Z,9.86
2023-05-02T01:34:02.259Z,9.88
2023-05-02T01:35:02.262Z,9.90
2023-05-02T01:36:02.271Z,9.92
2023-05-02T01:37:03.147Z,9.94
2023-05-02T01:38:02.697Z,9.96
2023-05-02T01:39:02.769Z,9.99
2023-05-02T01:40:02.970Z,10.01
2023-05-02T01:41:03.028Z,10.05
2023-05-02T01:42:02.085Z,10.07
2023-05-02T01:43:01.898Z,10.11
2023-05-02T01:44:01.806Z,10.12
2023-05-02T01:45:01.944Z,10.12
2023-05-02T01:46:02.160Z,10.12
2023-05-02T01:47:02.220Z,10.14
2023-05-02T01:48:01.816Z,10.15
2023-05-02T01:49:02.270Z,10.15
2023-05-02T01:50:02.538Z,10.16
2023-05-02T01:51:01.950Z,10.18
2023-05-02T01:52:02.682Z,10.19
2023-05-02T01:53:02.802Z,10.21
2023-05-02T01:54:02.282Z,10.22
2023-05-02T01:55:02.649Z,10.27
2023-05-02T01:56:02.671Z,10.31
2023-05-02T01:57:02.917Z,10.34
2023-05-02T01:58:02.928Z,10.37
2023-05-02T01:59:02.951Z,10.36
2023-05-02T02:00:03.216Z,10.38
2023-05-02T02:01:02.554Z,10.39
2023-05-02T02:02:02.943Z,10.39
2023-05-02T02:03:02.978Z,10.42
2023-05-02T02:04:03.047Z,10.47
2023-05-02T02:05:03.097Z,10.51
2023-05-02T02:06:03.054Z,10.54
2023-05-02T02:07:02.810Z,10.57
2023-05-02T02:08:02.967Z,10.59
2023-05-02T02:09:02.654Z,10.62
2023-05-02T02:10:02.750Z,10.64
2023-05-02T02:11:02.515Z,10.66
2023-05-02T02:12:03.074Z,10.66
2023-05-02T02:13:03.053Z,10.67
2023-05-02T02:14:03.073Z,10.69
2023-05-02T02:15:03.324Z,10.69
2023-05-02T02:16:03.006Z,10.70
2023-05-02T02:17:03.778Z,10.71
2023-05-02T02:18:03.799Z,10.73
2023-05-02T02:19:03.589Z,10.74
2023-05-02T02:20:03.588Z,10.75
2023-05-02T02:21:03.586Z,10.77
2023-05-02T02:22:03.482Z,10.81
2023-05-02T02:23:03.333Z,10.83
2023-05-02T02:24:03.372Z,10.85
2023-05-02T02:25:03.452Z,10.88
2023-05-02T02:26:03.025Z,10.89
2023-05-02T02:27:03.779Z,10.90
2023-05-02T02:28:03.587Z,10.91
2023-05-02T02:29:03.436Z,10.91
2023-05-02T02:30:03.515Z,10.94
2023-05-02T02:31:03.624Z,10.95
2023-05-02T02:32:03.450Z,10.96
2023-05-02T02:33:03.340Z,10.96
2023-05-02T02:34:03.303Z,10.95
2023-05-02T02:35:03.299Z,10.93
2023-05-02T02:36:03.267Z,10.92
2023-05-02T02:37:02.983Z,10.91
2023-05-02T02:38:03.118Z,10.91
2023-05-02T02:39:03.478Z,10.92
2023-05-02T02:40:03.501Z,10.87
2023-05-02T02:41:02.947Z,10.86
2023-05-02T02:42:03.247Z,10.87
2023-05-02T02:43:03.741Z,10.91
2023-05-02T02:44:03.185Z,10.92
2023-05-02T02:45:03.394Z,10.92
2023-05-02T02:46:03.674Z,10.95
2023-05-02T02:47:02.996Z,10.95
2023-05-02T02:48:03.197Z,10.97
2023-05-02T02:49:02.853Z,10.97
2023-05-02T02:50:02.817Z,10.97
2023-05-02T02:51:03.057Z,11.00
2023-05-02T02:52:03.639Z,11.02
2023-05-02T02:53:03.754Z,11.05
2023-05-02T02:54:12.443Z,11.00
2023-05-02T02:55:03.347Z,11.02
2023-05-02T02:56:03.246Z,11.03
2023-05-02T02:57:02.892Z,11.05
2023-05-02T02:58:03.173Z,11.08
2023-05-02T02:59:02.920Z,11.10
2023-05-02T03:00:03.329Z,11.10
2023-05-02T03:01:03.328Z,11.11
2023-05-02T03:02:03.120Z,11.14
2023-05-02T03:03:03.442Z,11.12
2023-05-02T03:04:03.506Z,11.09
2023-05-02T03:05:03.294Z,11.12
2023-05-02T03:06:02.949Z,11.15
2023-05-02T03:07:02.501Z,11.17
2023-05-02T03:08:02.453Z,11.21
2023-05-02T03:09:02.165Z,11.24
2023-05-02T03:10:02.479Z,11.26
2023-05-02T03:11:02.744Z,11.23
2023-05-02T03:12:02.612Z,11.23
2023-05-02T03:13:02.601Z,11.24
2023-05-02T03:14:02.690Z,11.19
2023-05-02T03:15:03.016Z,11.19
2023-05-02T03:16:02.938Z,11.20
2023-05-02T03:17:03.619Z,11.19
2023-05-02T03:18:03.484Z,11.21
2023-05-02T03:19:03.210Z,11.21
2023-05-02T03:20:03.405Z,11.21
2023-05-02T03:21:03.499Z,11.19
2023-05-02T03:22:02.943Z,11.19
2023-05-02T03:23:02.992Z,11.22
2023-05-02T03:24:02.954Z,11.19
2023-05-02T03:25:02.841Z,11.20
2023-05-02T03:26:03.205Z,11.22
2023-05-02T03:27:02.143Z,11.20
2023-05-02T03:28:02.609Z,11.20
2023-05-02T03:29:02.672Z,11.22
2023-05-02T03:30:02.968Z,11.18
2023-05-02T03:31:02.639Z,11.19
2023-05-02T03:32:02.654Z,11.17
2023-05-02T03:33:02.719Z,11.14
2023-05-02T03:34:03.124Z,11.17
2023-05-02T03:35:02.887Z,11.17
2023-05-02T03:36:02.888Z,11.11
2023-05-02T03:37:03.229Z,11.11
2023-05-02T03:38:03.699Z,11.07
2023-05-02T03:39:03.468Z,11.05
2023-05-02T03:40:03.233Z,11.04
2023-05-02T03:41:03.543Z,11.04
2023-05-02T03:42:02.746Z,11.03
2023-05-02T03:43:02.447Z,11.05
2023-05-02T03:44:02.512Z,11.07
2023-05-02T03:45:02.949Z,11.05
2023-05-02T03:46:02.767Z,11.07
2023-05-02T03:47:02.910Z,11.09
2023-05-02T03:48:03.070Z,11.10
2023-05-02T03:49:03.296Z,11.11
2023-05-02T03:50:03.368Z,11.13
2023-05-02T03:51:03.270Z,11.13
2023-05-02T03:52:02.960Z,11.12
2023-05-02T03:53:03.054Z,11.14
2023-05-02T03:54:02.987Z,11.16
2023-05-02T03:55:03.089Z,11.22
2023-05-02T03:56:03.243Z,11.24
2023-05-02T03:57:02.442Z,11.27
2023-05-02T03:58:02.585Z,11.31
2023-05-02T03:59:02.650Z,11.32
2023-05-02T04:00:02.963Z,11.33
2023-05-02T04:01:02.550Z,11.37
2023-05-02T04:02:02.387Z,11.39
2023-05-02T04:03:02.681Z,11.41
2023-05-02T04:04:02.947Z,11.41
2023-05-02T04:05:02.817Z,11.44
2023-05-02T04:06:03.001Z,11.48
2023-05-02T04:07:02.191Z,11.52
2023-05-02T04:08:02.119Z,11.53
2023-05-02T04:09:02.314Z,11.48
2023-05-02T04:10:02.203Z,11.50
2023-05-02T04:11:02.304Z,11.51
2023-05-02T04:12:02.834Z,11.52
2023-05-02T04:13:02.506Z,11.56
2023-05-02T04:14:03.135Z,11.60
2023-05-02T04:15:03.057Z,11.63
2023-05-02T04:16:02.517Z,11.60
2023-05-02T04:17:02.547Z,11.64
2023-05-02T04:18:02.502Z,11.65
2023-05-02T04:19:02.046Z,11.68
2023-05-02T04:20:05.054Z,11.68
2023-05-02T04:21:02.380Z,11.65
2023-05-02T04:22:02.813Z,11.64
2023-05-02T04:23:02.766Z,11.66
2023-05-02T04:24:02.329Z,11.69
2023-05-02T04:25:02.509Z,11.66
2023-05-02T04:26:02.962Z,11.66
2023-05-02T04:27:02.865Z,11.62
2023-05-02T04:28:02.398Z,11.60
2023-05-02T04:29:02.784Z,11.62
2023-05-02T04:30:03.154Z,11.63
2023-05-02T04:31:02.943Z,11.62
2023-05-02T04:32:01.894Z,11.58
2023-05-02T04:33:02.300Z,11.59
2023-05-02T04:34:01.822Z,11.61
2023-05-02T04:35:02.015Z,11.61
2023-05-02T04:36:02.258Z,11.65
2023-05-02T04:37:02.680Z,11.68
2023-05-02T04:38:02.804Z,11.64
2023-05-02T04:39:03.041Z,11.67
2023-05-02T04:40:02.718Z,11.70
2023-05-02T04:41:09.346Z,11.72
2023-05-02T04:42:01.974Z,11.74
2023-05-02T04:43:01.990Z,11.76
2023-05-02T04:44:01.876Z,11.78
2023-05-02T04:45:02.186Z,11.80
2023-05-02T04:46:01.807Z,11.84
2023-05-02T04:47:02.571Z,11.86
2023-05-02T04:48:02.283Z,11.84
2023-05-02T04:49:02.744Z,11.86
2023-05-02T04:50:02.700Z,11.86
2023-05-02T04:51:02.113Z,11.86
2023-05-02T04:52:02.723Z,11.88
2023-05-02T04:53:02.461Z,11.88
2023-05-02T04:54:02.664Z,11.90
2023-05-02T04:55:03.033Z,11.92
2023-05-02T04:56:02.742Z,11.96
2023-05-02T04:57:02.477Z,11.97
2023-05-02T04:58:02.380Z,11.99
2023-05-02T04:59:02.243Z,12.00
2023-05-02T05:00:02.391Z,12.01
2023-05-02T05:01:02.325Z,12.03
2023-05-02T05:02:02.604Z,12.05
2023-05-02T05:03:02.563Z,12.07
2023-05-02T05:04:03.030Z,12.07
2023-05-02T05:05:03.019Z,12.09
2023-05-02T05:06:02.580Z,12.10
2023-05-02T05:07:02.048Z,12.13
2023-05-02T05:08:02.487Z,12.16
2023-05-02T05:09:02.046Z,12.17
2023-05-02T05:10:02.622Z,12.18
2023-05-02T05:11:02.514Z,12.12
2023-05-02T05:12:02.486Z,12.09
2023-05-02T05:13:02.581Z,12.08
2023-05-02T05:14:02.370Z,12.04
2023-05-02T05:15:02.363Z,12.04
2023-05-02T05:16:02.176Z,12.02
2023-05-02T05:17:02.471Z,12.03
2023-05-02T05:18:02.633Z,12.03
2023-05-02T05:19:02.440Z,12.04
2023-05-02T05:20:02.687Z,12.05
2023-05-02T05:21:02.548Z,12.06
2023-05-02T05:22:03.045Z,12.05
2023-05-02T05:23:02.980Z,12.07
2023-05-02T05:24:03.271Z,12.06
2023-05-02T05:25:03.259Z,12.03
2023-05-02T05:26:02.718Z,12.04
2023-05-02T05:27:02.493Z,12.05
2023-05-02T05:28:02.441Z,12.08
2023-05-02T05:29:02.284Z,12.07
2023-05-02T05:30:02.658Z,12.09
2023-05-02T05:31:02.311Z,12.09
2023-05-02T05:32:02.310Z,12.06
2023-05-02T05:33:02.224Z,12.08
2023-05-02T05:34:02.394Z,12.07
2023-05-02T05:35:02.634Z,12.09
2023-05-02T05:36:02.370Z,12.11
2023-05-02T05:37:02.755Z,12.12
2023-05-02T05:38:03.102Z,12.13
2023-05-02T05:39:03.084Z,12.14
2023-05-02T05:40:03.191Z,12.15
2023-05-02T05:41:02.582Z,12.17
2023-05-02T05:42:02.043Z,12.19
2023-05-02T05:43:02.081Z,12.23
2023-05-02T05:44:02.519Z,12.27
2023-05-02T05:45:02.170Z,12.27
2023-05-02T05:46:01.974Z,12.29
2023-05-02T05:47:02.629Z,12.30
2023-05-02T05:48:02.436Z,12.30
2023-05-02T05:49:02.724Z,12.31
2023-05-02T05:50:02.738Z,12.32
2023-05-02T05:51:02.132Z,12.34
2023-05-02T05:52:02.913Z,12.36
2023-05-02T05:53:02.585Z,12.36
2023-05-02T05:54:02.558Z,12.33
2023-05-02T05:55:02.625Z,12.33
2023-05-02T05:56:02.525Z,12.28
2023-05-02T05:57:02.790Z,12.27
2023-05-02T05:58:02.589Z,12.23
2023-05-02T05:59:02.909Z,12.20
2023-05-02T06:00:03.003Z,12.21
2023-05-02T06:01:02.529Z,12.24
2023-05-02T06:02:02.998Z,12.28
2023-05-02T06:03:03.228Z,12.30
2023-05-02T06:04:03.125Z,12.32
2023-05-02T06:05:02.994Z,12.34
2023-05-02T06:06:03.284Z,12.38
2023-05-02T06:07:02.630Z,12.41
2023-05-02T06:08:02.514Z,12.43
2023-05-02T06:09:02.467Z,12.44
2023-05-02T06:10:03.005Z,12.48
2023-05-02T06:11:02.754Z,12.48
2023-05-02T06:12:03.015Z,12.50
2023-05-02T06:13:03.064Z,12.51
2023-05-02T06:14:02.814Z,12.51
2023-05-02T06:15:03.083Z,12.51
2023-05-02T06:16:03.021Z,12.52
2023-05-02T06:17:03.097Z,12.53
2023-05-02T06:18:03.298Z,12.54
2023-05-02T06:19:03.030Z,12.54
2023-05-02T06:20:03.261Z,12.57
2023-05-02T06:21:03.331Z,12.60
2023-05-02T06:22:02.746Z,12.60
2023-05-02T06:23:02.739Z,12.61
2023-05-02T06:24:03.167Z,12.61
2023-05-02T06:25:02.748Z,12.62
2023-05-02T06:26:02.896Z,12.59
2023-05-02T06:27:02.842Z,12.58
2023-05-02T06:28:02.212Z,12.58
2023-05-02T06:29:02.746Z,12.57
2023-05-02T06:30:02.931Z,12.55
2023-05-02T06:31:02.697Z,12.55
2023-05-02T06:32:03.512Z,12.56
2023-05-02T06:33:02.989Z,12.59
2023-05-02T06:34:03.373Z,12.61
2023-05-02T06:35:02.925Z,12.59
2023-05-02T06:36:02.962Z,12.58
2023-05-02T06:37:03.111Z,12.60
2023-05-02T06:38:03.548Z,12.61
2023-05-02T06:39:02.957Z,12.61
2023-05-02T06:40:03.475Z,12.62
2023-05-02T06:41:03.112Z,12.60
2023-05-02T06:42:02.474Z,12.58
2023-05-02T06:43:02.315Z,12.56
2023-05-02T06:44:02.230Z,12.55
2023-05-02T06:45:02.126Z,12.55
2023-05-02T06:46:02.656Z,12.56
2023-05-02T06:47:02.897Z,12.54
2023-05-02T06:48:03.294Z,12.57
2023-05-02T06:49:02.795Z,12.58
2023-05-02T06:50:03.209Z,12.56
2023-05-02T06:51:03.254Z,12.60
2023-05-02T06:52:03.257Z,12.62
2023-05-02T06:53:03.557Z,12.63
2023-05-02T06:54:03.123Z,12.61
2023-05-02T06:55:02.922Z,12.63
2023-05-02T06:56:02.998Z,12.63
2023-05-02T06:57:02.520Z,12.60
2023-05-02T06:58:02.494Z,12.63
2023-05-02T06:59:02.551Z,12.65
2023-05-02T07:00:02.989Z,12.68
2023-05-02T07:01:02.901Z,12.70
2023-05-02T07:02:05.140Z,12.72
2023-05-02T07:03:02.328Z,12.68
2023-05-02T07:04:02.597Z,12.71
2023-05-02T07:05:02.606Z,12.70
2023-05-02T07:06:02.805Z,12.70
2023-05-02T07:07:03.247Z,12.68
2023-05-02T07:08:02.693Z,12.70
2023-05-02T07:09:02.941Z,12.68
2023-05-02T07:10:03.195Z,12.68
2023-05-02T07:11:03.158Z,12.69
2023-05-02T07:12:06.066Z,12.68
2023-05-02T07:13:03.517Z,12.64
2023-05-02T07:14:02.961Z,12.66
2023-05-02T07:15:03.412Z,12.67
2023-05-02T07:16:03.299Z,12.68
2023-05-02T07:17:02.817Z,12.72
2023-05-02T07:18:02.605Z,12.78
2023-05-02T07:19:02.717Z,12.81
2023-05-02T07:20:02.793Z,12.82
2023-05-02T07:21:02.713Z,12.86
2023-05-02T07:22:03.173Z,12.88
2023-05-02T07:23:02.846Z,12.90
2023-05-02T07:24:03.312Z,12.92
2023-05-02T07:25:03.063Z,12.94
2023-05-02T07:26:05.547Z,12.97
2023-05-02T07:27:02.455Z,12.99
2023-05-02T07:28:02.542Z,13.02
2023-05-02T07:29:02.535Z,13.05
2023-05-02T07:30:03.252Z,13.04
2023-05-02T07:31:02.708Z,13.06
2023-05-02T07:32:03.376Z,13.06
2023-05-02T07:33:03.216Z,13.07
2023-05-02T07:34:03.047Z,13.04
2023-05-02T07:35:03.417Z,13.02
2023-05-02T07:36:03.387Z,13.01
2023-05-02T07:37:02.845Z,13.04
2023-05-02T07:38:02.477Z,13.03
2023-05-02T07:39:02.493Z,12.97
2023-05-02T07:40:03.626Z,12.94
2023-05-02T07:41:02.683Z,12.94
2023-05-02T07:42:03.147Z,12.94
2023-05-02T07:43:03.546Z,12.93
2023-05-02T07:44:03.615Z,12.89
2023-05-02T07:45:03.132Z,12.85
2023-05-02T07:46:03.597Z,12.80
2023-05-02T07:47:02.604Z,12.76
2023-05-02T07:48:02.626Z,12.68
2023-05-02T07:49:02.917Z,12.65
2023-05-02T07:50:03.591Z,12.63
2023-05-02T07:51:03.101Z,12.59
2023-05-02T07:52:03.082Z,12.58
2023-05-02T07:53:03.066Z,12.52
2023-05-02T07:54:03.101Z,12.50
2023-05-02T07:56:03.535Z,12.51
2023-05-02T07:57:03.166Z,12.49
2023-05-02T07:58:02.651Z,12.50
2023-05-02T07:59:03.577Z,12.49
2023-05-02T08:00:03.707Z,12.47
2023-05-02T08:01:02.725Z,12.46
2023-05-02T08:02:03.729Z,12.48
2023-05-02T08:03:03.660Z,12.46
2023-05-02T08:04:03.674Z,12.43
2023-05-02T08:05:03.408Z,12.42
2023-05-02T08:06:03.616Z,12.40
2023-05-02T08:07:02.619Z,12.41
2023-05-02T08:08:02.712Z,12.43
2023-05-02T08:09:02.881Z,12.44
2023-05-02T08:10:02.552Z,12.43
2023-05-02T08:11:02.772Z,12.46
2023-05-02T08:12:03.501Z,12.49
2023-05-02T08:13:03.424Z,12.53
2023-05-02T08:14:03.203Z,12.54
2023-05-02T08:15:03.251Z,12.56
2023-05-02T08:16:03.146Z,12.59
2023-05-02T08:17:02.414Z,12.63
2023-05-02T08:18:02.461Z,12.60
2023-05-02T08:19:02.740Z,12.63
2023-05-02T08:20:02.968Z,12.64
2023-05-02T08:21:02.818Z,12.64
2023-05-02T08:22:02.564Z,12.67
2023-05-02T08:23:02.706Z,12.65
2023-05-02T08:24:02.684Z,12.61
2023-05-02T08:25:02.922Z,12.63
2023-05-02T08:26:02.962Z,12.65
2023-05-02T08:27:03.121Z,12.63
2023-05-02T08:28:03.206Z,12.65
2023-05-02T08:29:03.266Z,12.68
2023-05-02T08:30:03.863Z,12.65
2023-05-02T08:31:03.335Z,12.65
2023-05-02T08:32:03.214Z,12.67
2023-05-02T08:33:02.989Z,12.71
2023-05-02T08:34:03.216Z,12.74
2023-05-02T08:35:03.162Z,12.78
2023-05-02T08:36:03.233Z,12.78
2023-05-02T08:37:03.133Z,12.79
2023-05-02T08:38:03.505Z,12.81
2023-05-02T08:39:03.539Z,12.82
2023-05-02T08:40:03.482Z,12.84
2023-05-02T08:41:03.263Z,12.88
2023-05-02T08:42:02.555Z,12.93
2023-05-02T08:43:02.502Z,12.95
2023-05-02T08:44:02.358Z,12.99
2023-05-02T08:45:02.390Z,13.00
2023-05-02T08:46:02.827Z,13.03
2023-05-02T08:47:02.963Z,13.04
2023-05-02T08:48:02.610Z,13.01
2023-05-02T08:49:02.909Z,13.02
2023-05-02T08:50:03.327Z,13.04
2023-05-02T08:51:03.009Z,13.05
2023-05-02T08:52:02.766Z,13.02
2023-05-02T08:53:02.603Z,13.06
2023-05-02T08:54:03.073Z,13.10
2023-05-02T08:55:03.445Z,13.15
2023-05-02T08:56:03.250Z,13.15
2023-05-02T08:57:03.629Z,13.20
2023-05-02T08:58:03.486Z,13.20
2023-05-02T08:59:03.397Z,13.25
2023-05-02T09:00:03.106Z,13.26
2023-05-02T09:01:03.368Z,13.23
2023-05-02T09:02:02.683Z,13.23
2023-05-02T09:03:02.661Z,13.25
2023-05-02T09:04:02.829Z,13.28
2023-05-02T09:05:02.780Z,13.33
2023-05-02T09:06:02.512Z,13.34
2023-05-02T09:07:02.650Z,13.30
2023-05-02T09:08:02.975Z,13.30
2023-05-02T09:09:02.473Z,13.30
2023-05-02T09:10:03.033Z,13.24
2023-05-02T09:11:02.881Z,13.19
2023-05-02T09:12:03.320Z,13.23
2023-05-02T09:13:03.274Z,13.26
2023-05-02T09:14:03.217Z,13.23
2023-05-02T09:15:02.828Z,13.24
2023-05-02T09:16:03.130Z,13.24
2023-05-02T09:17:02.739Z,13.21
2023-05-02T09:18:02.756Z,13.23
2023-05-02T09:19:02.833Z,13.18
2023-05-02T09:20:02.872Z,13.17
2023-05-02T09:21:02.882Z,13.13
2023-05-02T09:22:02.254Z,13.13
2023-05-02T09:23:02.401Z,13.15
2023-05-02T09:24:02.085Z,13.17
2023-05-02T09:25:02.436Z,13.18
2023-05-02T09:26:02.212Z,13.23
2023-05-02T09:27:02.865Z,13.27
2023-05-02T09:28:03.065Z,13.31
2023-05-02T09:29:03.003Z,13.33
2023-05-02T09:30:02.911Z,13.38
2023-05-02T09:31:02.663Z,13.44
2023-05-02T09:32:02.864Z,13.43
2023-05-02T09:33:03.122Z,13.40
2023-05-02T09:34:02.913Z,13.38
2023-05-02T09:35:03.143Z,13.36
2023-05-02T09:36:02.523Z,13.39
2023-05-02T09:37:02.302Z,13.41
2023-05-02T09:38:02.389Z,13.43
2023-05-02T09:39:02.533Z,13.47
2023-05-02T09:40:02.594Z,13.55
2023-05-02T09:41:01.961Z,13.63
2023-05-02T09:42:02.338Z,13.70
2023-05-02T09:43:02.478Z,13.76
2023-05-02T09:44:02.145Z,13.81
2023-05-02T09:45:02.366Z,13.84
2023-05-02T09:46:02.664Z,13.89
2023-05-02T09:47:02.139Z,13.92
2023-05-02T09:48:02.814Z,14.00
2023-05-02T09:49:02.239Z,14.01
2023-05-02T09:50:02.739Z,13.98
2023-05-02T09:51:02.543Z,13.98
2023-05-02T09:52:02.922Z,13.90
2023-05-02T09:53:03.061Z,13.86
2023-05-02T09:54:02.914Z,13.87
2023-05-02T09:55:02.890Z,13.89
2023-05-02T09:56:02.709Z,13.87
2023-05-02T09:57:03.227Z,13.88
2023-05-02T09:58:03.294Z,13.89
2023-05-02T09:59:03.392Z,13.89
2023-05-02T10:00:03.247Z,13.88
2023-05-02T10:01:03.538Z,13.85
2023-05-02T10:02:02.650Z,13.82
2023-05-02T10:03:02.357Z,13.79
2023-05-02T10:04:02.119Z,13.72
2023-05-02T10:05:02.832Z,13.69
2023-05-02T10:06:02.248Z,13.70
2023-05-02T10:07:02.941Z,13.70
2023-05-02T10:08:03.156Z,13.75
2023-05-02T10:09:03.027Z,13.78
2023-05-02T10:10:02.892Z,13.81
2023-05-02T10:11:03.102Z,13.85
2023-05-02T10:12:03.076Z,13.88
2023-05-02T10:13:03.085Z,13.90
2023-05-02T10:14:03.202Z,13.92
2023-05-02T10:15:02.951Z,13.89
2023-05-02T10:16:02.998Z,13.90
2023-05-02T10:17:03.239Z,13.81
2023-05-02T10:18:02.880Z,13.80
2023-05-02T10:19:03.213Z,13.79
2023-05-02T10:20:03.365Z,13.78
2023-05-02T10:21:03.308Z,13.74
2023-05-02T10:22:03.353Z,13.74
2023-05-02T10:23:03.170Z,13.69
2023-05-02T10:24:02.940Z,13.68
2023-05-02T10:25:03.516Z,13.66
2023-05-02T10:26:03.126Z,13.61
2023-05-02T10:27:02.921Z,13.61
2023-05-02T10:28:02.851Z,13.60
2023-05-02T10:29:02.674Z,13.59
2023-05-02T10:30:02.796Z,13.56
2023-05-02T10:31:02.758Z,13.52
2023-05-02T10:32:03.103Z,13.49
2023-05-02T10:33:03.136Z,13.42
2023-05-02T10:34:02.519Z,13.33
2023-05-02T10:35:02.999Z,13.28
2023-05-02T10:36:02.605Z,13.19
2023-05-02T10:37:03.281Z,13.15
2023-05-02T10:38:03.141Z,13.06
2023-05-02T10:39:03.130Z,13.03
2023-05-02T10:40:03.065Z,13.05
2023-05-02T10:41:02.963Z,12.98
2023-05-02T10:42:03.634Z,12.92
2023-05-02T10:43:03.550Z,12.90
2023-05-02T10:44:03.239Z,12.89
2023-05-02T10:45:03.458Z,12.92
2023-05-02T10:46:03.049Z,12.87
2023-05-02T10:47:02.914Z,12.89
2023-05-02T10:48:02.292Z,12.88
2023-05-02T10:49:02.458Z,12.88
2023-05-02T10:50:02.713Z,12.89
2023-05-02T10:51:02.661Z,12.91
2023-05-02T10:52:03.143Z,12.95
2023-05-02T10:53:03.249Z,12.99
2023-05-02T10:54:03.222Z,13.06
2023-05-02T10:55:03.045Z,13.10
2023-05-02T10:56:02.722Z,13.17
2023-05-02T10:57:03.526Z,13.23
2023-05-02T10:58:03.331Z,13.21
2023-05-02T10:59:03.411Z,13.25
2023-05-02T11:00:03.070Z,13.26
2023-05-02T11:01:03.253Z,13.33
2023-05-02T11:02:04.099Z,13.39
2023-05-02T11:03:02.823Z,13.39
2023-05-02T11:04:02.845Z,13.46
2023-05-02T11:05:03.112Z,13.45
2023-05-02T11:06:02.829Z,13.51
2023-05-02T11:07:03.194Z,13.54
2023-05-02T11:08:03.083Z,13.56
2023-05-02T11:09:03.079Z,13.61
2023-05-02T11:10:02.916Z,13.63
2023-05-02T11:11:03.252Z,13.69
2023-05-02T11:12:03.351Z,13.73
2023-05-02T11:13:02.952Z,13.76
2023-05-02T11:14:03.315Z,13.80
2023-05-02T11:15:03.555Z,13.81
2023-05-02T11:16:02.989Z,13.86
2023-05-02T11:17:02.773Z,13.94
2023-05-02T11:18:02.528Z,14.00
2023-05-02T11:19:02.158Z,14.09
2023-05-02T11:20:02.306Z,14.10
2023-05-02T11:21:02.711Z,14.19
2023-05-02T11:22:03.116Z,14.23
2023-05-02T11:23:03.008Z,14.26
2023-05-02T11:24:02.598Z,14.31
2023-05-02T11:25:03.114Z,14.40
2023-05-02T11:26:02.689Z,14.44
2023-05-02T11:27:03.299Z,14.43
2023-05-02T11:28:02.689Z,14.45
2023-05-02T11:29:02.729Z,14.52
2023-05-02T11:30:02.884Z,14.52
2023-05-02T11:31:02.854Z,14.56
2023-05-02T11:32:02.219Z,14.59
2023-05-02T11:33:02.642Z,14.64
2023-05-02T11:34:02.169Z,14.73
2023-05-02T11:35:02.700Z,14.74
2023-05-02T11:36:02.617Z,14.78
2023-05-02T11:37:02.690Z,14.76
2023-05-02T11:38:02.686Z,14.71
2023-05-02T11:39:03.129Z,14.73
2023-05-02T11:40:02.751Z,14.77
2023-05-02T11:41:02.985Z,14.79
2023-05-02T11:42:03.217Z,14.81
2023-05-02T11:43:02.467Z,14.89
2023-05-02T11:44:02.750Z,14.96
2023-05-02T11:45:02.453Z,14.98
2023-05-02T11:46:02.723Z,14.99
2023-05-02T11:47:02.791Z,15.00
2023-05-02T11:48:01.984Z,15.04
2023-05-02T11:49:02.468Z,15.08
2023-05-02T11:50:02.012Z,15.11
2023-05-02T11:51:02.506Z,15.14
2023-05-02T11:52:02.046Z,15.22
2023-05-02T11:53:03.023Z,15.30
2023-05-02T11:54:02.814Z,15.36
2023-05-02T11:55:02.794Z,15.45
2023-05-02T11:56:02.954Z,15.52
2023-05-02T11:57:02.452Z,15.60
2023-05-02T11:58:02.904Z,15.60
2023-05-02T11:59:03.137Z,15.65
2023-05-02T12:00:03.434Z,15.64
2023-05-02T12:01:03.294Z,15.69
2023-05-02T12:02:03.145Z,15.75
2023-05-02T12:03:03.546Z,15.82
2023-05-02T12:04:03.376Z,15.88
2023-05-02T12:05:03.287Z,15.94
2023-05-02T12:06:03.830Z,16.01
2023-05-02T12:07:03.618Z,16.07
2023-05-02T12:08:03.635Z,16.07
2023-05-02T12:09:03.548Z,16.08
2023-05-02T12:10:03.403Z,16.07
2023-05-02T12:11:03.632Z,16.07
2023-05-02T12:12:03.596Z,16.11
2023-05-02T12:13:02.616Z,16.15
2023-05-02T12:14:02.754Z,16.23
2023-05-02T12:15:02.654Z,16.31
2023-05-02T12:16:02.422Z,16.38
2023-05-02T12:17:02.888Z,16.45
2023-05-02T12:18:03.510Z,16.51
2023-05-02T12:19:03.484Z,16.58
2023-05-02T12:20:03.557Z,16.60
2023-05-02T12:21:03.624Z,16.56
2023-05-02T12:22:03.528Z,16.60
2023-05-02T12:23:02.993Z,16.60
2023-05-02T12:24:03.355Z,16.62
2023-05-02T12:25:03.341Z,16.60
2023-05-02T12:26:02.781Z,16.59
2023-05-02T12:27:02.841Z,16.59
2023-05-02T12:28:03.764Z,16.54
2023-05-02T12:29:03.555Z,16.43
2023-05-02T12:30:04.243Z,16.39
2023-05-02T12:31:03.163Z,16.41
2023-05-02T12:32:03.454Z,16.40
2023-05-02T12:33:03.327Z,16.36
2023-05-02T12:34:03.297Z,16.33
2023-05-02T12:35:03.101Z,16.25
2023-05-02T12:36:03.283Z,16.21
2023-05-02T12:37:02.614Z,16.19
2023-05-02T12:38:02.298Z,16.12
2023-05-02T12:39:02.354Z,16.05
2023-05-02T12:40:02.831Z,16.08
2023-05-02T12:41:02.940Z,16.07
2023-05-02T12:42:02.645Z,16.04
2023-05-02T12:43:03.509Z,16.10
2023-05-02T12:44:03.231Z,16.12
2023-05-02T12:45:03.481Z,16.07
2023-05-02T12:46:03.204Z,16.11
2023-05-02T12:47:03.583Z,16.17
2023-05-02T12:48:03.062Z,16.22
2023-05-02T12:49:03.120Z,16.25
2023-05-02T12:50:03.467Z,16.20
2023-05-02T12:51:03.461Z,16.23
2023-05-02T12:52:03.266Z,16.23
2023-05-02T12:53:02.492Z,16.18
2023-05-02T12:54:02.897Z,16.10
2023-05-02T12:55:02.906Z,16.15
2023-05-02T12:56:03.051Z,16.15